createdAt,value
2018-12-26T00:00:03.457Z,73.41
2018-12-26T00:02:32.018Z,73.96
2018-12-26T00:05:00.623Z,76.00
2018-12-26T00:07:28.932Z,76.57
2018-12-26T00:09:57.231Z,76.31
2018-12-26T00:12:25.563Z,75.19
2018-12-26T00:14:53.939Z,75.33
2018-12-26T00:17:22.263Z,74.82
2018-12-26T00:19:50.581Z,76.01
2018-12-26T00:22:18.893Z,75.26
2018-12-26T00:24:47.572Z,77.53
2018-12-26T00:27:15.892Z,75.02
2018-12-26T00:29:44.202Z,76.39
2018-12-26T00:32:12.523Z,75.08
2018-12-26T00:34:41.203Z,74.61
2018-12-26T00:37:09.522Z,77.15
2018-12-26T00:39:38.163Z,77.40
2018-12-26T00:42:06.498Z,77.25
2018-12-26T00:44:34.815Z,77.50
2018-12-26T00:47:03.142Z,79.05
2018-12-26T00:49:31.455Z,78.95
2018-12-26T00:51:59.781Z,78.43
2018-12-26T00:54:28.085Z,78.52
2018-12-26T00:56:56.389Z,79.76
2018-12-26T00:59:24.716Z,78.91
2018-12-26T01:01:53.024Z,79.32
2018-12-26T01:04:23.423Z,77.45
2018-12-26T01:06:52.101Z,78.64
2018-12-26T01:09:20.641Z,79.14
2018-12-26T01:11:49.279Z,79.03
2018-12-26T01:14:17.671Z,76.02
2018-12-26T01:16:45.974Z,75.93
2018-12-26T01:19:14.302Z,76.22
2018-12-26T01:21:42.609Z,78.92
2018-12-26T01:24:10.927Z,79.44
2018-12-26T01:26:39.310Z,78.23
2018-12-26T01:29:07.632Z,77.28
2018-12-26T01:31:35.935Z,78.18
2018-12-26T01:34:04.319Z,78.01
2018-12-26T01:36:32.652Z,75.83
2018-12-26T01:39:01.159Z,75.75
2018-12-26T01:41:29.478Z,76.38
2018-12-26T01:43:57.782Z,76.75
2018-12-26T01:46:26.414Z,76.54
2018-12-26T01:48:54.796Z,75.79
2018-12-26T01:51:23.481Z,75.99
2018-12-26T01:53:51.781Z,75.93
2018-12-26T01:56:27.679Z,75.77
2018-12-26T01:58:50.129Z,76.33
2018-12-26T02:01:18.531Z,75.69
2018-12-26T02:03:46.840Z,76.56
2018-12-26T02:06:15.638Z,78.00
2018-12-26T02:08:43.899Z,78.18
2018-12-26T02:11:12.228Z,78.25
2018-12-26T02:13:40.870Z,77.64
2018-12-26T02:16:09.496Z,77.63
2018-12-26T02:18:37.796Z,77.51
2018-12-26T02:21:06.390Z,78.30
2018-12-26T02:23:34.772Z,76.70
2018-12-26T02:26:03.093Z,77.73
2018-12-26T02:28:31.399Z,76.96
2018-12-26T02:30:59.729Z,74.80
2018-12-26T02:33:28.038Z,76.49
2018-12-26T02:35:56.354Z,77.62
2018-12-26T02:38:25.030Z,75.81
2018-12-26T02:40:53.334Z,77.58
2018-12-26T02:43:21.658Z,77.86
2018-12-26T02:45:50.344Z,77.85
2018-12-26T02:48:18.680Z,77.97
2018-12-26T02:50:47.255Z,76.78
2018-12-26T02:53:15.688Z,77.10
2018-12-26T02:55:43.998Z,76.90
2018-12-26T02:58:12.304Z,76.77
2018-12-26T03:00:40.972Z,76.51
2018-12-26T03:03:09.329Z,77.29
2018-12-26T03:05:37.749Z,76.25
2018-12-26T03:08:06.064Z,77.66
2018-12-26T03:10:34.391Z,76.93
2018-12-26T03:13:02.695Z,77.30
2018-12-26T03:15:31.332Z,76.95
2018-12-26T03:17:59.710Z,77.86
2018-12-26T03:20:28.400Z,78.92
2018-12-26T03:22:56.710Z,80.15
2018-12-26T03:25:25.071Z,79.54
2018-12-26T03:27:53.395Z,81.67
2018-12-26T03:30:21.708Z,80.02
2018-12-26T03:32:50.253Z,80.50
2018-12-26T03:35:18.571Z,79.87
2018-12-26T03:37:46.884Z,80.21
2018-12-26T03:40:15.234Z,79.10
2018-12-26T03:42:43.638Z,78.28
2018-12-26T03:45:13.133Z,78.56
2018-12-26T03:47:42.371Z,78.36
2018-12-26T03:50:10.926Z,79.80
2018-12-26T03:52:39.307Z,78.46
2018-12-26T03:55:07.706Z,77.32
2018-12-26T03:57:36.188Z,79.15
2018-12-26T04:00:06.752Z,78.96
2018-12-26T04:02:35.071Z,78.65
2018-12-26T04:05:03.480Z,77.64
2018-12-26T04:07:31.787Z,77.81
2018-12-26T04:10:00.379Z,78.43
2018-12-26T04:12:28.694Z,79.62
2018-12-26T04:14:57.003Z,78.43
2018-12-26T04:17:25.409Z,78.32
2018-12-26T04:19:53.883Z,78.36
2018-12-26T04:22:22.579Z,79.47
2018-12-26T04:24:50.892Z,79.42
2018-12-26T04:27:19.224Z,77.63
2018-12-26T04:29:47.541Z,80.58
2018-12-26T04:32:15.871Z,78.45
2018-12-26T04:34:44.190Z,78.38
2018-12-26T04:37:12.652Z,77.75
2018-12-26T04:39:40.959Z,75.83
2018-12-26T04:42:09.821Z,76.56
2018-12-26T04:44:38.142Z,77.21
2018-12-26T04:47:06.451Z,77.92
2018-12-26T04:49:34.787Z,76.22
2018-12-26T04:52:03.089Z,77.63
2018-12-26T04:54:31.415Z,77.73
2018-12-26T04:56:59.723Z,79.11
2018-12-26T04:59:28.059Z,79.84
2018-12-26T05:01:56.367Z,77.17
2018-12-26T05:04:25.040Z,77.50
2018-12-26T05:06:53.359Z,79.18
2018-12-26T05:09:22.041Z,77.89
2018-12-26T05:11:50.356Z,78.67
2018-12-26T05:14:18.663Z,80.54
2018-12-26T05:16:46.993Z,77.47
2018-12-26T05:19:15.377Z,78.20
2018-12-26T05:21:43.698Z,78.17
2018-12-26T05:24:12.080Z,78.77
2018-12-26T05:26:40.787Z,79.68
2018-12-26T05:29:09.475Z,79.79
2018-12-26T05:31:37.812Z,80.23
2018-12-26T05:34:06.123Z,78.79
2018-12-26T05:36:34.450Z,81.73
2018-12-26T05:39:03.509Z,82.20
2018-12-26T05:41:31.846Z,80.82
2018-12-26T05:44:00.157Z,81.38
2018-12-26T05:46:28.464Z,82.58
2018-12-26T05:48:56.802Z,82.40
2018-12-26T05:51:25.122Z,80.83
2018-12-26T05:53:53.455Z,82.74
2018-12-26T05:56:21.763Z,83.06
2018-12-26T05:58:50.100Z,81.89
2018-12-26T06:01:18.411Z,83.02
2018-12-26T06:03:46.747Z,82.14
2018-12-26T06:06:15.057Z,82.30
2018-12-26T06:08:43.775Z,83.50
2018-12-26T06:11:12.091Z,80.52
2018-12-26T06:13:40.425Z,81.41
2018-12-26T06:16:08.734Z,80.91
2018-12-26T06:18:37.060Z,80.11
2018-12-26T06:21:05.373Z,82.92
2018-12-26T06:23:33.782Z,80.99
2018-12-26T06:26:02.102Z,81.20
2018-12-26T06:28:30.411Z,80.24
2018-12-26T06:30:58.810Z,81.56
2018-12-26T06:33:27.178Z,79.52
2018-12-26T06:35:55.512Z,78.18
2018-12-26T06:38:24.155Z,81.45
2018-12-26T06:40:54.380Z,81.52
2018-12-26T06:43:22.706Z,81.99
2018-12-26T06:45:51.040Z,81.64
2018-12-26T06:48:19.349Z,76.88
2018-12-26T06:50:47.667Z,79.29
2018-12-26T06:53:16.001Z,78.54
2018-12-26T06:55:44.318Z,80.18
2018-12-26T06:58:12.956Z,80.46
2018-12-26T07:00:41.269Z,81.92
2018-12-26T07:03:09.607Z,80.94
2018-12-26T07:05:37.985Z,79.94
2018-12-26T07:08:06.681Z,79.92
2018-12-26T07:10:34.993Z,80.19
2018-12-26T07:13:03.339Z,80.86
2018-12-26T07:15:31.655Z,82.09
2018-12-26T07:17:59.969Z,82.59
2018-12-26T07:20:28.415Z,81.99
2018-12-26T07:22:57.080Z,82.38
2018-12-26T07:25:25.481Z,80.83
2018-12-26T07:27:53.794Z,82.03
2018-12-26T07:30:22.526Z,81.24
2018-12-26T07:32:50.835Z,80.39
2018-12-26T07:35:19.171Z,81.66
2018-12-26T07:37:47.589Z,81.39
2018-12-26T07:40:16.270Z,81.38
2018-12-26T07:42:44.879Z,81.41
2018-12-26T07:45:13.211Z,79.76
2018-12-26T07:47:41.522Z,79.48
2018-12-26T07:50:09.925Z,81.07
2018-12-26T07:52:38.232Z,83.23
2018-12-26T07:55:06.873Z,82.04
2018-12-26T07:57:35.181Z,82.78
2018-12-26T08:00:04.733Z,80.27
2018-12-26T08:02:33.044Z,81.67
2018-12-26T08:05:01.454Z,80.25
2018-12-26T08:07:29.771Z,80.30
2018-12-26T08:09:58.088Z,79.26
2018-12-26T08:12:26.430Z,82.72
2018-12-26T08:14:54.741Z,81.55
2018-12-26T08:17:23.426Z,79.65
2018-12-26T08:19:51.893Z,79.93
2018-12-26T08:22:20.239Z,79.51
2018-12-26T08:24:50.187Z,77.29
2018-12-26T08:27:18.523Z,80.70
2018-12-26T08:29:46.845Z,79.68
2018-12-26T08:32:15.168Z,78.44
2018-12-26T08:34:43.487Z,80.47
2018-12-26T08:37:12.777Z,80.77
2018-12-26T08:39:41.411Z,81.43
2018-12-26T08:42:09.747Z,79.90
2018-12-26T08:44:38.286Z,80.27
2018-12-26T08:47:06.680Z,78.84
2018-12-26T08:49:35.352Z,79.29
2018-12-26T08:52:03.736Z,78.12
2018-12-26T08:54:32.071Z,78.21
2018-12-26T08:57:00.379Z,79.03
2018-12-26T08:59:29.080Z,79.82
2018-12-26T09:01:57.395Z,77.94
2018-12-26T09:04:26.266Z,78.60
2018-12-26T09:06:54.906Z,78.36
2018-12-26T09:09:23.218Z,78.12
2018-12-26T09:11:51.625Z,76.86
2018-12-26T09:14:19.940Z,75.82
2018-12-26T09:16:48.268Z,78.90
2018-12-26T09:19:17.781Z,78.07
2018-12-26T09:21:46.115Z,78.22
2018-12-26T09:24:14.423Z,78.59
2018-12-26T09:26:42.765Z,76.86
2018-12-26T09:29:11.073Z,79.06
2018-12-26T09:31:39.392Z,75.45
2018-12-26T09:34:07.733Z,76.22
2018-12-26T09:36:36.041Z,73.55
2018-12-26T09:39:07.088Z,75.66
2018-12-26T09:41:36.684Z,75.92
2018-12-26T09:44:05.374Z,77.35
2018-12-26T09:46:33.714Z,76.15
2018-12-26T09:49:02.251Z,76.35
2018-12-26T09:51:30.565Z,74.27
2018-12-26T09:53:58.899Z,72.24
2018-12-26T09:56:27.207Z,73.62
2018-12-26T09:58:55.527Z,72.83
2018-12-26T10:01:23.857Z,69.66
2018-12-26T10:03:52.176Z,71.50
2018-12-26T10:06:20.518Z,72.19
2018-12-26T10:08:48.826Z,72.81
2018-12-26T10:11:17.163Z,71.29
2018-12-26T10:13:45.490Z,72.02
2018-12-26T10:16:13.807Z,72.02
2018-12-26T10:18:42.120Z,71.59
2018-12-26T10:21:10.428Z,69.91
2018-12-26T10:23:38.757Z,69.89
2018-12-26T10:26:07.092Z,68.19
2018-12-26T10:28:35.493Z,67.95
2018-12-26T10:31:03.809Z,69.31
2018-12-26T10:33:32.495Z,69.80
2018-12-26T10:36:00.805Z,68.36
2018-12-26T10:38:29.115Z,67.90
2018-12-26T10:40:57.518Z,68.75
2018-12-26T10:43:25.825Z,67.11
2018-12-26T10:45:54.188Z,69.46
2018-12-26T10:48:22.536Z,68.36
2018-12-26T10:50:50.876Z,68.03
2018-12-26T10:53:19.193Z,69.08
2018-12-26T10:55:47.519Z,68.47
2018-12-26T10:58:16.000Z,68.64
2018-12-26T11:00:44.523Z,69.80
2018-12-26T11:03:12.835Z,69.29
2018-12-26T11:05:41.564Z,70.25
2018-12-26T11:08:09.941Z,67.06
2018-12-26T11:10:38.257Z,68.89
2018-12-26T11:13:06.586Z,66.31
2018-12-26T11:15:34.893Z,65.77
2018-12-26T11:18:04.302Z,67.80
2018-12-26T11:20:32.683Z,66.07
2018-12-26T11:23:01.093Z,63.37
2018-12-26T11:25:29.407Z,63.31
2018-12-26T11:27:57.722Z,64.73
2018-12-26T11:30:26.061Z,64.08
2018-12-26T11:32:54.557Z,63.87
2018-12-26T11:35:22.885Z,63.37
2018-12-26T11:37:51.261Z,62.85
2018-12-26T11:40:19.589Z,61.59
2018-12-26T11:42:48.272Z,62.24
2018-12-26T11:45:16.780Z,61.64
2018-12-26T11:47:45.480Z,61.35
2018-12-26T11:50:13.800Z,59.85
2018-12-26T11:52:42.125Z,60.40
2018-12-26T11:55:10.434Z,60.86
2018-12-26T11:57:38.765Z,61.18
2018-12-26T12:00:08.304Z,61.24
2018-12-26T12:02:37.209Z,60.53
2018-12-26T12:05:06.183Z,58.87
2018-12-26T12:07:34.566Z,59.50
2018-12-26T12:10:02.977Z,58.98
2018-12-26T12:12:31.438Z,58.41
2018-12-26T12:14:59.843Z,54.50
2018-12-26T12:17:28.156Z,54.01
2018-12-26T12:19:56.489Z,54.53
2018-12-26T12:22:25.180Z,52.81
2018-12-26T12:24:53.515Z,52.28
2018-12-26T12:27:21.943Z,53.16
2018-12-26T12:29:50.225Z,51.51
2018-12-26T12:32:18.556Z,51.83
2018-12-26T12:34:47.195Z,51.42
2018-12-26T12:37:15.525Z,49.99
2018-12-26T12:39:43.840Z,52.08
2018-12-26T12:42:12.169Z,51.83
2018-12-26T12:44:41.741Z,52.62
2018-12-26T12:47:10.139Z,50.35
2018-12-26T12:49:38.912Z,51.75
2018-12-26T12:52:07.387Z,48.99
2018-12-26T12:54:35.790Z,50.70
2018-12-26T12:57:04.167Z,48.03
2018-12-26T12:59:32.583Z,49.94
2018-12-26T13:02:00.903Z,49.90
2018-12-26T13:04:29.310Z,50.12
2018-12-26T13:06:58.006Z,50.12
2018-12-26T13:09:26.460Z,50.62
2018-12-26T13:11:55.166Z,48.79
2018-12-26T13:14:23.503Z,50.72
2018-12-26T13:16:51.813Z,51.10
2018-12-26T13:19:20.142Z,50.78
2018-12-26T13:21:48.448Z,48.26
2018-12-26T13:24:17.073Z,48.74
2018-12-26T13:26:45.710Z,48.11
2018-12-26T13:29:14.025Z,49.04
2018-12-26T13:31:42.361Z,49.38
2018-12-26T13:34:10.743Z,50.06
2018-12-26T13:36:39.321Z,50.48
2018-12-26T13:39:07.711Z,46.10
2018-12-26T13:41:36.103Z,48.31
2018-12-26T13:44:04.419Z,47.97
2018-12-26T13:46:33.908Z,47.01
2018-12-26T13:49:02.463Z,46.38
2018-12-26T13:51:30.775Z,46.06
2018-12-26T13:53:59.504Z,46.51
2018-12-26T13:56:27.809Z,44.43
2018-12-26T13:58:56.141Z,45.66
2018-12-26T14:01:24.455Z,47.70
2018-12-26T14:03:52.791Z,47.78
2018-12-26T14:06:21.113Z,48.07
2018-12-26T14:08:50.057Z,49.18
2018-12-26T14:11:18.372Z,50.12
2018-12-26T14:13:46.894Z,47.60
2018-12-26T14:16:15.206Z,47.86
2018-12-26T14:18:43.514Z,51.27
2018-12-26T14:21:11.855Z,50.69
2018-12-26T14:23:40.176Z,49.92
2018-12-26T14:26:08.602Z,49.78
2018-12-26T14:28:36.927Z,50.22
2018-12-26T14:31:05.269Z,51.93
2018-12-26T14:33:33.915Z,54.93
2018-12-26T14:36:03.479Z,53.47
2018-12-26T14:38:31.994Z,55.13
2018-12-26T14:41:00.691Z,55.68
2018-12-26T14:43:29.004Z,54.92
2018-12-26T14:45:57.430Z,56.76
2018-12-26T14:48:25.746Z,54.49
2018-12-26T14:50:54.783Z,55.85
2018-12-26T14:53:23.107Z,56.80
2018-12-26T14:55:51.433Z,57.10
2018-12-26T14:58:19.754Z,57.51
2018-12-26T15:00:48.170Z,56.52
2018-12-26T15:03:16.487Z,58.48
2018-12-26T15:05:45.126Z,59.96
2018-12-26T15:08:13.447Z,60.30
2018-12-26T15:10:41.850Z,59.45
2018-12-26T15:13:10.164Z,60.44
2018-12-26T15:15:38.509Z,61.18
2018-12-26T15:18:06.834Z,60.54
2018-12-26T15:20:35.517Z,60.55
2018-12-26T15:23:04.212Z,59.71
2018-12-26T15:25:32.524Z,61.94
2018-12-26T15:28:01.229Z,58.56
2018-12-26T15:30:29.541Z,59.38
2018-12-26T15:32:57.876Z,58.02
2018-12-26T15:35:26.198Z,60.23
2018-12-26T15:37:54.596Z,63.41
2018-12-26T15:40:22.909Z,60.66
2018-12-26T15:42:51.398Z,61.46
2018-12-26T15:45:19.703Z,61.38
2018-12-26T15:47:48.107Z,63.10
2018-12-26T15:50:16.492Z,63.80
2018-12-26T15:52:44.820Z,62.27
2018-12-26T15:55:13.215Z,63.38
2018-12-26T15:57:41.540Z,64.23
2018-12-26T16:00:10.426Z,64.23
2018-12-26T16:02:38.738Z,62.18
2018-12-26T16:05:07.840Z,64.87
2018-12-26T16:07:36.608Z,65.40
2018-12-26T16:10:06.991Z,66.34
2018-12-26T16:12:35.288Z,67.28
2018-12-26T16:15:04.650Z,63.03
2018-12-26T16:17:32.965Z,64.30
2018-12-26T16:20:01.288Z,63.24
2018-12-26T16:22:29.613Z,62.80
2018-12-26T16:24:58.162Z,61.30
2018-12-26T16:27:26.498Z,62.63
2018-12-26T16:29:54.817Z,64.92
2018-12-26T16:32:23.499Z,64.19
2018-12-26T16:34:51.809Z,64.72
2018-12-26T16:37:20.153Z,67.72
2018-12-26T16:39:48.459Z,68.40
2018-12-26T16:42:17.055Z,67.97
2018-12-26T16:44:45.581Z,70.09
2018-12-26T16:47:13.896Z,69.61
2018-12-26T16:49:42.222Z,67.87
2018-12-26T16:52:10.537Z,67.62
2018-12-26T16:54:38.879Z,66.92
2018-12-26T16:57:07.203Z,66.12
2018-12-26T16:59:35.542Z,67.22
2018-12-26T17:02:04.387Z,66.61
2018-12-26T17:04:32.992Z,68.48
2018-12-26T17:07:01.300Z,67.97
2018-12-26T17:09:29.625Z,68.48
2018-12-26T17:11:57.929Z,67.20
2018-12-26T17:14:26.262Z,68.93
2018-12-26T17:16:54.575Z,66.42
2018-12-26T17:19:22.885Z,65.97
2018-12-26T17:21:51.230Z,65.22
2018-12-26T17:24:19.781Z,68.17
2018-12-26T17:26:48.120Z,66.55
2018-12-26T17:29:16.792Z,69.33
2018-12-26T17:31:45.131Z,67.10
2018-12-26T17:34:13.448Z,67.46
2018-12-26T17:36:42.179Z,68.15
2018-12-26T17:39:10.498Z,70.15
2018-12-26T17:41:38.816Z,70.17
2018-12-26T17:44:07.160Z,70.41
2018-12-26T17:46:35.498Z,71.60
2018-12-26T17:49:03.835Z,71.47
2018-12-26T17:51:32.169Z,70.47
2018-12-26T17:54:03.676Z,69.38
2018-12-26T17:56:35.172Z,70.33
2018-12-26T17:59:15.710Z,69.30
2018-12-26T18:01:50.227Z,69.19
2018-12-26T18:04:18.540Z,70.21
2018-12-26T18:06:47.194Z,69.50
2018-12-26T18:09:15.508Z,69.41
2018-12-26T18:11:43.834Z,70.99
2018-12-26T18:14:12.158Z,68.88
2018-12-26T18:16:40.493Z,71.32
2018-12-26T18:19:08.815Z,71.58
2018-12-26T18:21:37.293Z,70.92
2018-12-26T18:24:05.675Z,71.42
2018-12-26T18:26:34.006Z,70.35
2018-12-26T18:29:02.328Z,71.01
2018-12-26T18:31:30.715Z,73.55
2018-12-26T18:33:59.044Z,75.43
2018-12-26T18:36:27.359Z,75.47
2018-12-26T18:38:56.054Z,74.89
2018-12-26T18:41:24.363Z,76.23
2018-12-26T18:43:52.704Z,77.82
2018-12-26T18:46:21.006Z,77.35
2018-12-26T18:48:49.343Z,76.16
2018-12-26T18:51:17.647Z,75.57
2018-12-26T18:53:45.985Z,77.37
2018-12-26T18:56:14.280Z,76.30
2018-12-26T18:58:42.681Z,75.66
2018-12-26T19:01:10.991Z,74.07
2018-12-26T19:03:39.320Z,75.27
2018-12-26T19:06:07.654Z,75.85
2018-12-26T19:08:36.118Z,74.07
2018-12-26T19:11:04.499Z,77.59
2018-12-26T19:13:33.190Z,77.23
2018-12-26T19:16:01.508Z,77.18
2018-12-26T19:18:29.826Z,75.33
2018-12-26T19:20:58.176Z,76.77
2018-12-26T19:23:27.066Z,76.22
2018-12-26T19:25:55.389Z,75.95
2018-12-26T19:28:24.104Z,78.26
2018-12-26T19:30:52.888Z,77.63
2018-12-26T19:33:21.209Z,78.74
2018-12-26T19:35:49.860Z,77.99
2018-12-26T19:38:18.233Z,75.91
2018-12-26T19:40:46.565Z,74.59
2018-12-26T19:43:14.878Z,77.51
2018-12-26T19:45:43.210Z,79.36
2018-12-26T19:48:11.592Z,78.69
2018-12-26T19:50:40.244Z,79.02
2018-12-26T19:53:08.558Z,79.19
2018-12-26T19:55:37.079Z,76.39
2018-12-26T19:58:05.795Z,77.16
2018-12-26T20:00:34.132Z,76.22
2018-12-26T20:03:02.659Z,75.45
2018-12-26T20:05:31.514Z,75.93
2018-12-26T20:08:00.148Z,78.24
2018-12-26T20:10:28.486Z,79.03
2018-12-26T20:12:56.877Z,78.91
2018-12-26T20:15:25.519Z,79.86
2018-12-26T20:17:53.848Z,81.98
2018-12-26T20:20:22.170Z,79.34
2018-12-26T20:22:50.497Z,78.98
2018-12-26T20:25:18.806Z,78.91
2018-12-26T20:27:47.135Z,76.79
2018-12-26T20:30:15.460Z,78.33
2018-12-26T20:32:43.793Z,79.20
2018-12-26T20:35:12.100Z,77.43
2018-12-26T20:37:40.437Z,79.55
2018-12-26T20:40:08.840Z,81.31
2018-12-26T20:42:37.937Z,81.20
2018-12-26T20:45:07.712Z,80.86
2018-12-26T20:47:36.031Z,81.75
2018-12-26T20:50:06.948Z,81.52
2018-12-26T20:52:35.637Z,81.33
2018-12-26T20:55:04.107Z,80.00
2018-12-26T20:57:32.417Z,80.79
2018-12-26T21:00:01.129Z,80.41
2018-12-26T21:02:29.586Z,79.60
2018-12-26T21:04:57.926Z,77.91
2018-12-26T21:07:26.239Z,77.10
2018-12-26T21:09:54.613Z,79.39
2018-12-26T21:12:22.955Z,78.03
2018-12-26T21:14:51.867Z,77.56
2018-12-26T21:17:21.478Z,79.52
2018-12-26T21:19:50.000Z,78.98
2018-12-26T21:22:18.660Z,79.85
2018-12-26T21:24:47.037Z,81.35
2018-12-26T21:27:15.370Z,78.78
2018-12-26T21:29:43.701Z,81.16
2018-12-26T21:32:14.140Z,80.18
2018-12-26T21:34:42.303Z,80.88
2018-12-26T21:37:10.814Z,79.09
2018-12-26T21:39:39.582Z,78.70
2018-12-26T21:42:08.190Z,78.53
2018-12-26T21:44:36.493Z,75.53
2018-12-26T21:47:04.957Z,80.38
2018-12-26T21:49:33.257Z,79.03
2018-12-26T21:52:01.722Z,83.03
2018-12-26T21:54:30.380Z,84.02
2018-12-26T21:56:59.104Z,85.83
2018-12-26T21:59:27.504Z,83.25
2018-12-26T22:01:55.805Z,86.06
2018-12-26T22:04:24.247Z,84.33
2018-12-26T22:06:52.898Z,84.64
2018-12-26T22:09:21.620Z,84.46
2018-12-26T22:11:49.994Z,83.97
2018-12-26T22:14:18.472Z,82.32
2018-12-26T22:16:47.020Z,84.11
2018-12-26T22:19:15.464Z,83.25
2018-12-26T22:21:43.929Z,82.65
2018-12-26T22:24:12.231Z,82.70
2018-12-26T22:26:43.363Z,82.27
2018-12-26T22:29:10.797Z,85.20
2018-12-26T22:31:39.134Z,83.65
2018-12-26T22:34:07.461Z,82.94
2018-12-26T22:36:35.795Z,82.63
2018-12-26T22:39:06.141Z,81.31
2018-12-26T22:41:34.561Z,82.51
2018-12-26T22:44:03.161Z,81.37
2018-12-26T22:46:31.834Z,83.29
2018-12-26T22:49:00.151Z,83.39
2018-12-26T22:51:28.585Z,83.62
2018-12-26T22:53:56.974Z,81.18
2018-12-26T22:56:25.615Z,79.69
2018-12-26T22:58:54.147Z,77.51
2018-12-26T23:01:22.995Z,77.38
2018-12-26T23:03:51.361Z,76.23
2018-12-26T23:06:19.844Z,80.95
2018-12-26T23:08:48.175Z,83.76
2018-12-26T23:11:16.486Z,81.66
2018-12-26T23:13:44.884Z,81.40
2018-12-26T23:16:13.325Z,82.66
2018-12-26T23:18:41.822Z,82.83
2018-12-26T23:21:10.143Z,84.58
2018-12-26T23:23:38.787Z,81.98
2018-12-26T23:26:07.253Z,82.79
2018-12-26T23:28:35.716Z,83.22
2018-12-26T23:31:04.488Z,80.36
2018-12-26T23:33:32.864Z,81.61
2018-12-26T23:36:01.195Z,81.31
2018-12-26T23:38:29.507Z,82.79
2018-12-26T23:40:58.618Z,85.04
2018-12-26T23:43:26.924Z,84.09
2018-12-26T23:45:55.245Z,85.44
2018-12-26T23:48:23.588Z,88.09
2018-12-26T23:50:52.416Z,86.14
2018-12-26T23:53:20.758Z,85.81
2018-12-26T23:55:49.074Z,88.19
2018-12-26T23:58:18.482Z,87.23
